sensor_id;sensor_type;location;lat;lon;timestamp;temperature;humidity
4727;DHT22;2377;51.734;8.950;2023-07-29T00:01:42;17.60;99.90
4727;DHT22;2377;51.734;8.950;2023-07-29T00:04:09;17.60;99.90
4727;DHT22;2377;51.734;8.950;2023-07-29T00:06:38;17.60;99.90
4727;DHT22;2377;51.734;8.950;2023-07-29T00:09:05;17.60;99.90
4727;DHT22;2377;51.734;8.950;2023-07-29T00:11:32;17.50;99.90
4727;DHT22;2377;51.734;8.950;2023-07-29T00:14:01;17.60;99.90
4727;DHT22;2377;51.734;8.950;2023-07-29T00:16:28;17.60;99.90
4727;DHT22;2377;51.734;8.950;2023-07-29T00:18:55;17.60;99.90
4727;DHT22;2377;51.734;8.950;2023-07-29T00:21:22;17.60;99.90
4727;DHT22;2377;51.734;8.950;2023-07-29T00:23:49;17.60;99.90
4727;DHT22;2377;51.734;8.950;2023-07-29T00:26:16;17.60;99.90
4727;DHT22;2377;51.734;8.950;2023-07-29T00:28:43;17.50;99.90
4727;DHT22;2377;51.734;8.950;2023-07-29T00:31:11;17.50;99.90
4727;DHT22;2377;51.734;8.950;2023-07-29T00:33:38;17.50;99.90
4727;DHT22;2377;51.734;8.950;2023-07-29T00:36:05;17.50;99.90
4727;DHT22;2377;51.734;8.950;2023-07-29T00:38:32;17.50;99.90
4727;DHT22;2377;51.734;8.950;2023-07-29T00:41:00;17.50;99.90
4727;DHT22;2377;51.734;8.950;2023-07-29T00:43:29;17.50;99.90
4727;DHT22;2377;51.734;8.950;2023-07-29T00:45:56;17.50;99.90
4727;DHT22;2377;51.734;8.950;2023-07-29T00:48:26;17.60;99.90
4727;DHT22;2377;51.734;8.950;2023-07-29T00:50:54;17.60;99.90
4727;DHT22;2377;51.734;8.950;2023-07-29T00:53:21;17.60;99.90
4727;DHT22;2377;51.734;8.950;2023-07-29T00:55:47;17.60;99.90
4727;DHT22;2377;51.734;8.950;2023-07-29T00:58:14;17.60;99.90
4727;DHT22;2377;51.734;8.950;2023-07-29T01:00:41;17.60;99.90
4727;DHT22;2377;51.734;8.950;2023-07-29T01:03:09;17.60;99.90
4727;DHT22;2377;51.734;8.950;2023-07-29T01:05:44;17.70;99.90
4727;DHT22;2377;51.734;8.950;2023-07-29T01:08:24;17.70;99.90
4727;DHT22;2377;51.734;8.950;2023-07-29T01:11:07;17.80;99.90
4727;DHT22;2377;51.734;8.950;2023-07-29T01:13:48;17.80;99.90
4727;DHT22;2377;51.734;8.950;2023-07-29T01:16:23;17.80;99.90
4727;DHT22;2377;51.734;8.950;2023-07-29T01:19:00;17.80;99.90
4727;DHT22;2377;51.734;8.950;2023-07-29T01:21:33;17.80;99.90
4727;DHT22;2377;51.734;8.950;2023-07-29T01:24:06;17.90;99.90
4727;DHT22;2377;51.734;8.950;2023-07-29T01:26:33;17.90;99.90
4727;DHT22;2377;51.734;8.950;2023-07-29T01:29:00;17.90;99.90
4727;DHT22;2377;51.734;8.950;2023-07-29T01:31:32;17.80;99.90
4727;DHT22;2377;51.734;8.950;2023-07-29T01:34:06;17.80;99.90
4727;DHT22;2377;51.734;8.950;2023-07-29T01:36:37;17.80;99.90
4727;DHT22;2377;51.734;8.950;2023-07-29T01:39:10;17.80;99.90
4727;DHT22;2377;51.734;8.950;2023-07-29T01:41:39;17.80;99.90
4727;DHT22;2377;51.734;8.950;2023-07-29T01:44:08;17.80;99.90
4727;DHT22;2377;51.734;8.950;2023-07-29T01:46:36;17.80;1.00
4727;DHT22;2377;51.734;8.950;2023-07-29T01:49:05;17.80;1.00
4727;DHT22;2377;51.734;8.950;2023-07-29T01:51:32;17.90;1.00
4727;DHT22;2377;51.734;8.950;2023-07-29T01:53:59;18.00;1.00
4727;DHT22;2377;51.734;8.950;2023-07-29T01:56:28;18.00;1.00
4727;DHT22;2377;51.734;8.950;2023-07-29T01:58:57;18.00;1.00
4727;DHT22;2377;51.734;8.950;2023-07-29T02:01:24;18.00;1.00
4727;DHT22;2377;51.734;8.950;2023-07-29T02:03:51;18.00;1.00
4727;DHT22;2377;51.734;8.950;2023-07-29T02:06:20;18.10;1.00
4727;DHT22;2377;51.734;8.950;2023-07-29T02:08:48;18.10;1.00
4727;DHT22;2377;51.734;8.950;2023-07-29T02:11:15;18.20;1.00
4727;DHT22;2377;51.734;8.950;2023-07-29T02:13:44;18.20;1.00
4727;DHT22;2377;51.734;8.950;2023-07-29T02:16:11;18.20;99.90
4727;DHT22;2377;51.734;8.950;2023-07-29T02:18:38;18.30;99.90
4727;DHT22;2377;51.734;8.950;2023-07-29T02:21:05;18.30;1.00
4727;DHT22;2377;51.734;8.950;2023-07-29T02:23:34;18.30;1.00
4727;DHT22;2377;51.734;8.950;2023-07-29T02:26:01;18.30;1.00
4727;DHT22;2377;51.734;8.950;2023-07-29T02:28:28;18.30;99.90
4727;DHT22;2377;51.734;8.950;2023-07-29T02:31:12;18.30;99.90
4727;DHT22;2377;51.734;8.950;2023-07-29T02:33:41;18.30;99.90
4727;DHT22;2377;51.734;8.950;2023-07-29T02:36:08;18.40;1.00
4727;DHT22;2377;51.734;8.950;2023-07-29T02:38:35;18.30;1.00
4727;DHT22;2377;51.734;8.950;2023-07-29T02:41:02;18.30;1.00
4727;DHT22;2377;51.734;8.950;2023-07-29T02:43:29;18.30;1.00
4727;DHT22;2377;51.734;8.950;2023-07-29T02:45:56;18.30;1.00
4727;DHT22;2377;51.734;8.950;2023-07-29T02:48:25;18.30;1.00
4727;DHT22;2377;51.734;8.950;2023-07-29T02:50:52;18.30;1.00
4727;DHT22;2377;51.734;8.950;2023-07-29T02:53:19;18.30;1.00
4727;DHT22;2377;51.734;8.950;2023-07-29T02:55:46;18.30;1.00
4727;DHT22;2377;51.734;8.950;2023-07-29T02:58:13;18.30;1.00
4727;DHT22;2377;51.734;8.950;2023-07-29T03:00:40;18.30;1.00
4727;DHT22;2377;51.734;8.950;2023-07-29T03:03:09;18.30;1.00
4727;DHT22;2377;51.734;8.950;2023-07-29T03:05:37;18.30;1.00
4727;DHT22;2377;51.734;8.950;2023-07-29T03:08:04;18.30;1.00
4727;DHT22;2377;51.734;8.950;2023-07-29T03:10:31;18.30;1.00
4727;DHT22;2377;51.734;8.950;2023-07-29T03:13:01;18.30;1.00
4727;DHT22;2377;51.734;8.950;2023-07-29T03:15:28;18.30;1.00
4727;DHT22;2377;51.734;8.950;2023-07-29T03:17:55;18.30;1.00
4727;DHT22;2377;51.734;8.950;2023-07-29T03:20:22;18.30;1.00
4727;DHT22;2377;51.734;8.950;2023-07-29T03:22:51;18.30;1.00
4727;DHT22;2377;51.734;8.950;2023-07-29T03:25:18;18.20;1.00
4727;DHT22;2377;51.734;8.950;2023-07-29T03:27:45;18.20;1.00
4727;DHT22;2377;51.734;8.950;2023-07-29T03:30:15;18.20;1.00
4727;DHT22;2377;51.734;8.950;2023-07-29T03:32:44;18.20;1.00
4727;DHT22;2377;51.734;8.950;2023-07-29T03:35:11;18.20;1.00
4727;DHT22;2377;51.734;8.950;2023-07-29T03:37:39;18.20;1.00
4727;DHT22;2377;51.734;8.950;2023-07-29T03:40:08;18.30;1.00
4727;DHT22;2377;51.734;8.950;2023-07-29T03:42:36;18.30;1.00
4727;DHT22;2377;51.734;8.950;2023-07-29T03:45:04;18.20;1.00
4727;DHT22;2377;51.734;8.950;2023-07-29T03:47:31;18.30;1.00
4727;DHT22;2377;51.734;8.950;2023-07-29T03:49:58;18.20;1.00
4727;DHT22;2377;51.734;8.950;2023-07-29T03:52:25;18.20;1.00
4727;DHT22;2377;51.734;8.950;2023-07-29T03:54:52;18.20;1.00
4727;DHT22;2377;51.734;8.950;2023-07-29T03:57:21;18.20;1.00
4727;DHT22;2377;51.734;8.950;2023-07-29T03:59:48;18.30;1.00
4727;DHT22;2377;51.734;8.950;2023-07-29T04:02:15;18.30;1.00
4727;DHT22;2377;51.734;8.950;2023-07-29T04:04:42;18.40;1.00
4727;DHT22;2377;51.734;8.950;2023-07-29T04:07:12;18.30;1.00
4727;DHT22;2377;51.734;8.950;2023-07-29T04:09:40;18.30;1.00
4727;DHT22;2377;51.734;8.950;2023-07-29T04:12:08;18.30;1.00
4727;DHT22;2377;51.734;8.950;2023-07-29T04:14:37;18.30;1.00
4727;DHT22;2377;51.734;8.950;2023-07-29T04:17:04;18.30;1.00
4727;DHT22;2377;51.734;8.950;2023-07-29T04:19:32;18.30;1.00
4727;DHT22;2377;51.734;8.950;2023-07-29T04:22:05;18.30;1.00
4727;DHT22;2377;51.734;8.950;2023-07-29T04:24:39;18.40;1.00
4727;DHT22;2377;51.734;8.950;2023-07-29T04:27:06;18.40;1.00
4727;DHT22;2377;51.734;8.950;2023-07-29T04:29:34;18.40;1.00
4727;DHT22;2377;51.734;8.950;2023-07-29T04:32:04;18.40;1.00
4727;DHT22;2377;51.734;8.950;2023-07-29T04:34:31;18.50;1.00
4727;DHT22;2377;51.734;8.950;2023-07-29T04:36:58;18.50;1.00
4727;DHT22;2377;51.734;8.950;2023-07-29T04:39:26;18.40;1.00
4727;DHT22;2377;51.734;8.950;2023-07-29T04:41:53;18.30;1.00
4727;DHT22;2377;51.734;8.950;2023-07-29T04:44:21;18.40;1.00
4727;DHT22;2377;51.734;8.950;2023-07-29T04:46:48;18.40;1.00
4727;DHT22;2377;51.734;8.950;2023-07-29T04:49:16;18.40;1.00
4727;DHT22;2377;51.734;8.950;2023-07-29T04:51:43;18.40;1.00
4727;DHT22;2377;51.734;8.950;2023-07-29T04:54:10;18.40;1.00
4727;DHT22;2377;51.734;8.950;2023-07-29T04:56:37;18.40;1.00
4727;DHT22;2377;51.734;8.950;2023-07-29T04:59:05;18.40;1.00
4727;DHT22;2377;51.734;8.950;2023-07-29T05:01:33;18.50;1.00
4727;DHT22;2377;51.734;8.950;2023-07-29T05:04:01;18.50;1.00
4727;DHT22;2377;51.734;8.950;2023-07-29T05:06:30;18.50;1.00
4727;DHT22;2377;51.734;8.950;2023-07-29T05:08:57;18.50;1.00
4727;DHT22;2377;51.734;8.950;2023-07-29T05:11:24;18.50;1.00
4727;DHT22;2377;51.734;8.950;2023-07-29T05:13:51;18.50;1.00
4727;DHT22;2377;51.734;8.950;2023-07-29T05:16:18;18.50;1.00
4727;DHT22;2377;51.734;8.950;2023-07-29T05:18:45;18.50;1.00
4727;DHT22;2377;51.734;8.950;2023-07-29T05:21:20;18.50;1.00
4727;DHT22;2377;51.734;8.950;2023-07-29T05:23:48;18.50;1.00
4727;DHT22;2377;51.734;8.950;2023-07-29T05:26:15;18.50;1.00
4727;DHT22;2377;51.734;8.950;2023-07-29T05:28:42;18.50;1.00
4727;DHT22;2377;51.734;8.950;2023-07-29T05:31:09;18.50;1.00
4727;DHT22;2377;51.734;8.950;2023-07-29T05:33:36;18.50;1.00
4727;DHT22;2377;51.734;8.950;2023-07-29T05:36:04;18.50;1.00
4727;DHT22;2377;51.734;8.950;2023-07-29T05:38:31;18.50;1.00
4727;DHT22;2377;51.734;8.950;2023-07-29T05:40:59;18.60;1.00
4727;DHT22;2377;51.734;8.950;2023-07-29T05:43:27;18.50;1.00
4727;DHT22;2377;51.734;8.950;2023-07-29T05:45:54;18.50;1.00
4727;DHT22;2377;51.734;8.950;2023-07-29T05:48:21;18.50;1.00
4727;DHT22;2377;51.734;8.950;2023-07-29T05:50:48;18.50;1.00
4727;DHT22;2377;51.734;8.950;2023-07-29T05:53:15;18.50;1.00
4727;DHT22;2377;51.734;8.950;2023-07-29T05:55:42;18.60;1.00
4727;DHT22;2377;51.734;8.950;2023-07-29T05:58:11;18.60;1.00
4727;DHT22;2377;51.734;8.950;2023-07-29T06:00:38;18.70;1.00
4727;DHT22;2377;51.734;8.950;2023-07-29T06:03:05;18.80;1.00
4727;DHT22;2377;51.734;8.950;2023-07-29T06:05:32;18.70;1.00
4727;DHT22;2377;51.734;8.950;2023-07-29T06:07:59;18.70;1.00
4727;DHT22;2377;51.734;8.950;2023-07-29T06:10:26;18.80;1.00
4727;DHT22;2377;51.734;8.950;2023-07-29T06:12:53;18.70;1.00
4727;DHT22;2377;51.734;8.950;2023-07-29T06:15:21;18.60;1.00
4727;DHT22;2377;51.734;8.950;2023-07-29T06:17:48;18.70;1.00
4727;DHT22;2377;51.734;8.950;2023-07-29T06:20:15;18.70;1.00
4727;DHT22;2377;51.734;8.950;2023-07-29T06:22:42;18.60;1.00
4727;DHT22;2377;51.734;8.950;2023-07-29T06:25:10;18.60;1.00
4727;DHT22;2377;51.734;8.950;2023-07-29T06:27:36;18.60;1.00
4727;DHT22;2377;51.734;8.950;2023-07-29T06:30:04;18.60;1.00
4727;DHT22;2377;51.734;8.950;2023-07-29T06:32:34;18.60;1.00
4727;DHT22;2377;51.734;8.950;2023-07-29T06:35:01;18.60;1.00
4727;DHT22;2377;51.734;8.950;2023-07-29T06:37:29;18.60;1.00
4727;DHT22;2377;51.734;8.950;2023-07-29T06:39:56;18.70;1.00
4727;DHT22;2377;51.734;8.950;2023-07-29T06:42:23;18.70;1.00
4727;DHT22;2377;51.734;8.950;2023-07-29T06:44:50;18.70;1.00
4727;DHT22;2377;51.734;8.950;2023-07-29T06:47:16;18.80;1.00
4727;DHT22;2377;51.734;8.950;2023-07-29T06:49:46;18.80;1.00
4727;DHT22;2377;51.734;8.950;2023-07-29T06:52:13;18.80;1.00
4727;DHT22;2377;51.734;8.950;2023-07-29T06:54:40;18.80;1.00
4727;DHT22;2377;51.734;8.950;2023-07-29T06:57:07;18.90;1.00
4727;DHT22;2377;51.734;8.950;2023-07-29T06:59:34;18.90;1.00
4727;DHT22;2377;51.734;8.950;2023-07-29T07:02:01;18.80;1.00
4727;DHT22;2377;51.734;8.950;2023-07-29T07:04:27;18.90;1.00
4727;DHT22;2377;51.734;8.950;2023-07-29T07:06:56;18.80;1.00
4727;DHT22;2377;51.734;8.950;2023-07-29T07:09:23;19.00;1.00
4727;DHT22;2377;51.734;8.950;2023-07-29T07:11:50;19.00;1.00
4727;DHT22;2377;51.734;8.950;2023-07-29T07:14:18;19.00;1.00
4727;DHT22;2377;51.734;8.950;2023-07-29T07:16:45;19.00;1.00
4727;DHT22;2377;51.734;8.950;2023-07-29T07:19:12;19.00;1.00
4727;DHT22;2377;51.734;8.950;2023-07-29T07:21:39;19.00;1.00
4727;DHT22;2377;51.734;8.950;2023-07-29T07:24:07;19.00;1.00
4727;DHT22;2377;51.734;8.950;2023-07-29T07:26:34;19.00;1.00
4727;DHT22;2377;51.734;8.950;2023-07-29T07:29:01;19.00;1.00
4727;DHT22;2377;51.734;8.950;2023-07-29T07:31:28;19.00;1.00
4727;DHT22;2377;51.734;8.950;2023-07-29T07:33:59;18.90;1.00
4727;DHT22;2377;51.734;8.950;2023-07-29T07:36:27;19.00;1.00
4727;DHT22;2377;51.734;8.950;2023-07-29T07:38:54;18.90;1.00
4727;DHT22;2377;51.734;8.950;2023-07-29T07:41:23;19.00;1.00
4727;DHT22;2377;51.734;8.950;2023-07-29T07:43:50;18.90;1.00
4727;DHT22;2377;51.734;8.950;2023-07-29T07:46:17;19.00;1.00
4727;DHT22;2377;51.734;8.950;2023-07-29T07:48:44;19.00;1.00
4727;DHT22;2377;51.734;8.950;2023-07-29T07:51:11;19.00;1.00
4727;DHT22;2377;51.734;8.950;2023-07-29T07:53:39;19.00;1.00
4727;DHT22;2377;51.734;8.950;2023-07-29T07:56:06;19.00;1.00
4727;DHT22;2377;51.734;8.950;2023-07-29T07:58:34;19.10;1.00
4727;DHT22;2377;51.734;8.950;2023-07-29T08:01:02;19.10;1.00
4727;DHT22;2377;51.734;8.950;2023-07-29T08:03:30;19.10;1.00
4727;DHT22;2377;51.734;8.950;2023-07-29T08:05:57;19.10;1.00
4727;DHT22;2377;51.734;8.950;2023-07-29T08:08:25;19.20;1.00
4727;DHT22;2377;51.734;8.950;2023-07-29T08:10:52;19.20;1.00
4727;DHT22;2377;51.734;8.950;2023-07-29T08:13:20;19.30;1.00
4727;DHT22;2377;51.734;8.950;2023-07-29T08:15:49;19.30;1.00
4727;DHT22;2377;51.734;8.950;2023-07-29T08:18:18;19.30;1.00
4727;DHT22;2377;51.734;8.950;2023-07-29T08:20:52;19.40;1.00
4727;DHT22;2377;51.734;8.950;2023-07-29T08:23:21;19.40;1.00
4727;DHT22;2377;51.734;8.950;2023-07-29T08:25:52;19.50;1.00
4727;DHT22;2377;51.734;8.950;2023-07-29T08:28:22;19.40;1.00
4727;DHT22;2377;51.734;8.950;2023-07-29T08:30:50;19.40;1.00
4727;DHT22;2377;51.734;8.950;2023-07-29T08:33:17;19.30;1.00
4727;DHT22;2377;51.734;8.950;2023-07-29T08:35:44;19.30;1.00
4727;DHT22;2377;51.734;8.950;2023-07-29T08:38:11;19.10;1.00
4727;DHT22;2377;51.734;8.950;2023-07-29T08:40:43;19.10;1.00
4727;DHT22;2377;51.734;8.950;2023-07-29T08:43:14;19.00;1.00
4727;DHT22;2377;51.734;8.950;2023-07-29T08:45:44;19.00;1.00
4727;DHT22;2377;51.734;8.950;2023-07-29T08:48:13;19.00;1.00
4727;DHT22;2377;51.734;8.950;2023-07-29T08:50:46;19.10;1.00
4727;DHT22;2377;51.734;8.950;2023-07-29T08:53:14;19.10;1.00
4727;DHT22;2377;51.734;8.950;2023-07-29T08:55:41;19.00;1.00
4727;DHT22;2377;51.734;8.950;2023-07-29T08:58:08;19.10;1.00
4727;DHT22;2377;51.734;8.950;2023-07-29T09:00:37;19.10;1.00
4727;DHT22;2377;51.734;8.950;2023-07-29T09:03:06;19.10;1.00
4727;DHT22;2377;51.734;8.950;2023-07-29T09:05:34;19.20;1.00
4727;DHT22;2377;51.734;8.950;2023-07-29T09:08:03;19.30;1.00
4727;DHT22;2377;51.734;8.950;2023-07-29T09:10:35;19.30;1.00
4727;DHT22;2377;51.734;8.950;2023-07-29T09:13:02;19.40;1.00
4727;DHT22;2377;51.734;8.950;2023-07-29T09:15:32;19.40;1.00
4727;DHT22;2377;51.734;8.950;2023-07-29T09:18:09;19.30;1.00
4727;DHT22;2377;51.734;8.950;2023-07-29T09:20:38;19.50;99.90
4727;DHT22;2377;51.734;8.950;2023-07-29T09:23:08;19.80;99.90
4727;DHT22;2377;51.734;8.950;2023-07-29T09:25:37;20.00;99.90
4727;DHT22;2377;51.734;8.950;2023-07-29T09:28:09;20.10;99.90
4727;DHT22;2377;51.734;8.950;2023-07-29T09:30:38;20.10;99.90
4727;DHT22;2377;51.734;8.950;2023-07-29T09:33:06;20.20;99.90
4727;DHT22;2377;51.734;8.950;2023-07-29T09:35:34;20.30;99.90
4727;DHT22;2377;51.734;8.950;2023-07-29T09:38:05;20.60;99.90
4727;DHT22;2377;51.734;8.950;2023-07-29T09:40:36;20.70;99.90
4727;DHT22;2377;51.734;8.950;2023-07-29T09:43:05;20.80;99.90
4727;DHT22;2377;51.734;8.950;2023-07-29T09:45:34;20.80;99.90
4727;DHT22;2377;51.734;8.950;2023-07-29T09:48:04;20.60;99.90
4727;DHT22;2377;51.734;8.950;2023-07-29T09:50:35;20.50;99.90
4727;DHT22;2377;51.734;8.950;2023-07-29T09:53:04;20.60;99.90
4727;DHT22;2377;51.734;8.950;2023-07-29T09:55:34;20.50;99.90
4727;DHT22;2377;51.734;8.950;2023-07-29T09:58:02;20.40;99.90
4727;DHT22;2377;51.734;8.950;2023-07-29T10:00:32;20.30;99.90
4727;DHT22;2377;51.734;8.950;2023-07-29T10:03:00;20.20;99.90
4727;DHT22;2377;51.734;8.950;2023-07-29T10:05:28;20.30;99.90
4727;DHT22;2377;51.734;8.950;2023-07-29T10:07:56;20.60;99.90
4727;DHT22;2377;51.734;8.950;2023-07-29T10:10:26;21.00;99.90
4727;DHT22;2377;51.734;8.950;2023-07-29T10:12:54;21.10;99.90
4727;DHT22;2377;51.734;8.950;2023-07-29T10:15:24;21.30;99.90
4727;DHT22;2377;51.734;8.950;2023-07-29T10:17:52;21.30;99.90
4727;DHT22;2377;51.734;8.950;2023-07-29T10:20:20;21.10;99.90
4727;DHT22;2377;51.734;8.950;2023-07-29T10:22:48;21.10;99.90
4727;DHT22;2377;51.734;8.950;2023-07-29T10:25:19;21.00;99.90
4727;DHT22;2377;51.734;8.950;2023-07-29T10:27:56;20.90;99.90
4727;DHT22;2377;51.734;8.950;2023-07-29T10:30:28;20.90;99.90
4727;DHT22;2377;51.734;8.950;2023-07-29T10:32:58;21.00;84.30
4727;DHT22;2377;51.734;8.950;2023-07-29T10:35:25;20.90;75.80
4727;DHT22;2377;51.734;8.950;2023-07-29T10:37:52;21.00;99.90
4727;DHT22;2377;51.734;8.950;2023-07-29T10:40:20;21.10;91.90
4727;DHT22;2377;51.734;8.950;2023-07-29T10:43:02;21.20;69.80
4727;DHT22;2377;51.734;8.950;2023-07-29T10:45:39;21.30;56.70
4727;DHT22;2377;51.734;8.950;2023-07-29T10:48:10;21.60;20.40
4727;DHT22;2377;51.734;8.950;2023-07-29T10:50:38;21.60;21.40
4727;DHT22;2377;51.734;8.950;2023-07-29T10:53:05;21.70;23.50
4727;DHT22;2377;51.734;8.950;2023-07-29T10:55:34;21.60;37.70
4727;DHT22;2377;51.734;8.950;2023-07-29T10:58:10;21.70;12.90
4727;DHT22;2377;51.734;8.950;2023-07-29T11:00:41;21.80;17.60
4727;DHT22;2377;51.734;8.950;2023-07-29T11:03:10;21.80;15.90
4727;DHT22;2377;51.734;8.950;2023-07-29T11:05:50;21.90;7.50
4727;DHT22;2377;51.734;8.950;2023-07-29T11:08:19;21.80;17.10
4727;DHT22;2377;51.734;8.950;2023-07-29T11:10:58;21.90;1.80
4727;DHT22;2377;51.734;8.950;2023-07-29T11:13:35;22.00;1.00
4727;DHT22;2377;51.734;8.950;2023-07-29T11:16:04;22.10;1.00
4727;DHT22;2377;51.734;8.950;2023-07-29T11:18:33;22.30;1.00
4727;DHT22;2377;51.734;8.950;2023-07-29T11:21:03;22.30;1.00
4727;DHT22;2377;51.734;8.950;2023-07-29T11:23:32;22.10;1.00
4727;DHT22;2377;51.734;8.950;2023-07-29T11:26:01;22.00;1.00
4727;DHT22;2377;51.734;8.950;2023-07-29T11:28:30;22.00;1.00
4727;DHT22;2377;51.734;8.950;2023-07-29T11:30:59;22.10;1.00
4727;DHT22;2377;51.734;8.950;2023-07-29T11:33:26;22.10;1.00
4727;DHT22;2377;51.734;8.950;2023-07-29T11:35:54;22.10;1.00
4727;DHT22;2377;51.734;8.950;2023-07-29T11:38:24;22.00;1.00
4727;DHT22;2377;51.734;8.950;2023-07-29T11:40:55;22.00;1.00
4727;DHT22;2377;51.734;8.950;2023-07-29T11:43:24;22.10;1.00
4727;DHT22;2377;51.734;8.950;2023-07-29T11:46:04;22.30;1.00
4727;DHT22;2377;51.734;8.950;2023-07-29T11:48:38;22.40;1.00
4727;DHT22;2377;51.734;8.950;2023-07-29T11:51:20;22.30;1.00
4727;DHT22;2377;51.734;8.950;2023-07-29T11:53:57;22.30;1.00
4727;DHT22;2377;51.734;8.950;2023-07-29T11:56:26;22.30;1.00
4727;DHT22;2377;51.734;8.950;2023-07-29T11:58:55;22.30;1.00
4727;DHT22;2377;51.734;8.950;2023-07-29T12:01:27;22.40;1.00
4727;DHT22;2377;51.734;8.950;2023-07-29T12:03:55;22.50;1.00
4727;DHT22;2377;51.734;8.950;2023-07-29T12:06:23;22.60;1.00
4727;DHT22;2377;51.734;8.950;2023-07-29T12:08:51;22.80;1.00
4727;DHT22;2377;51.734;8.950;2023-07-29T12:11:18;23.00;1.00
4727;DHT22;2377;51.734;8.950;2023-07-29T12:13:47;23.10;1.00
4727;DHT22;2377;51.734;8.950;2023-07-29T12:16:16;23.10;1.00
4727;DHT22;2377;51.734;8.950;2023-07-29T12:18:45;23.00;1.00
4727;DHT22;2377;51.734;8.950;2023-07-29T12:21:14;23.10;1.00
4727;DHT22;2377;51.734;8.950;2023-07-29T12:23:41;23.00;1.00
4727;DHT22;2377;51.734;8.950;2023-07-29T12:26:08;23.10;1.00
4727;DHT22;2377;51.734;8.950;2023-07-29T12:28:35;23.10;1.00
4727;DHT22;2377;51.734;8.950;2023-07-29T12:31:07;23.10;1.00
4727;DHT22;2377;51.734;8.950;2023-07-29T12:33:36;23.00;1.00
4727;DHT22;2377;51.734;8.950;2023-07-29T12:36:05;22.80;1.00
4727;DHT22;2377;51.734;8.950;2023-07-29T12:38:32;22.80;1.00
4727;DHT22;2377;51.734;8.950;2023-07-29T12:41:00;22.80;1.00
4727;DHT22;2377;51.734;8.950;2023-07-29T12:43:26;22.70;1.00
4727;DHT22;2377;51.734;8.950;2023-07-29T12:45:54;22.60;1.00
4727;DHT22;2377;51.734;8.950;2023-07-29T12:48:23;22.50;1.00
4727;DHT22;2377;51.734;8.950;2023-07-29T12:50:50;22.50;1.00
4727;DHT22;2377;51.734;8.950;2023-07-29T12:53:18;22.60;1.00
4727;DHT22;2377;51.734;8.950;2023-07-29T12:55:45;22.60;1.00
4727;DHT22;2377;51.734;8.950;2023-07-29T12:58:12;22.50;1.00
4727;DHT22;2377;51.734;8.950;2023-07-29T13:00:39;22.50;1.00
4727;DHT22;2377;51.734;8.950;2023-07-29T13:03:06;22.50;1.00
4727;DHT22;2377;51.734;8.950;2023-07-29T13:05:33;22.20;1.00
4727;DHT22;2377;51.734;8.950;2023-07-29T13:08:00;22.20;1.00
4727;DHT22;2377;51.734;8.950;2023-07-29T13:10:28;22.20;1.00
4727;DHT22;2377;51.734;8.950;2023-07-29T13:12:55;22.30;1.00
4727;DHT22;2377;51.734;8.950;2023-07-29T13:15:22;22.30;1.00
4727;DHT22;2377;51.734;8.950;2023-07-29T13:17:49;22.30;1.00
4727;DHT22;2377;51.734;8.950;2023-07-29T13:20:16;22.30;1.00
4727;DHT22;2377;51.734;8.950;2023-07-29T13:22:43;22.20;1.00
4727;DHT22;2377;51.734;8.950;2023-07-29T13:25:10;22.30;1.00
4727;DHT22;2377;51.734;8.950;2023-07-29T13:27:38;22.30;1.00
4727;DHT22;2377;51.734;8.950;2023-07-29T13:30:07;22.30;1.00
4727;DHT22;2377;51.734;8.950;2023-07-29T13:32:35;22.40;1.00
4727;DHT22;2377;51.734;8.950;2023-07-29T13:35:02;22.20;1.00
4727;DHT22;2377;51.734;8.950;2023-07-29T13:37:29;22.10;1.00
4727;DHT22;2377;51.734;8.950;2023-07-29T13:39:56;22.10;1.00
4727;DHT22;2377;51.734;8.950;2023-07-29T13:42:23;22.00;1.00
4727;DHT22;2377;51.734;8.950;2023-07-29T13:44:51;22.00;1.00
4727;DHT22;2377;51.734;8.950;2023-07-29T13:47:18;22.10;1.00
4727;DHT22;2377;51.734;8.950;2023-07-29T13:49:45;22.30;1.00
4727;DHT22;2377;51.734;8.950;2023-07-29T13:52:13;22.50;1.00
4727;DHT22;2377;51.734;8.950;2023-07-29T13:54:40;22.60;1.00
4727;DHT22;2377;51.734;8.950;2023-07-29T13:57:07;22.70;1.00
4727;DHT22;2377;51.734;8.950;2023-07-29T13:59:35;22.90;1.00
4727;DHT22;2377;51.734;8.950;2023-07-29T14:02:05;23.10;1.00
4727;DHT22;2377;51.734;8.950;2023-07-29T14:04:32;23.20;1.00
4727;DHT22;2377;51.734;8.950;2023-07-29T14:06:59;23.20;1.00
4727;DHT22;2377;51.734;8.950;2023-07-29T14:09:27;23.00;1.00
4727;DHT22;2377;51.734;8.950;2023-07-29T14:11:54;23.00;1.00
4727;DHT22;2377;51.734;8.950;2023-07-29T14:14:21;23.10;1.00
4727;DHT22;2377;51.734;8.950;2023-07-29T14:16:48;23.30;1.00
4727;DHT22;2377;51.734;8.950;2023-07-29T14:19:17;23.50;1.00
4727;DHT22;2377;51.734;8.950;2023-07-29T14:21:44;23.60;1.00
4727;DHT22;2377;51.734;8.950;2023-07-29T14:24:11;23.70;1.00
4727;DHT22;2377;51.734;8.950;2023-07-29T14:26:38;23.80;1.00
4727;DHT22;2377;51.734;8.950;2023-07-29T14:29:04;23.70;1.00
4727;DHT22;2377;51.734;8.950;2023-07-29T14:31:32;23.50;1.00
4727;DHT22;2377;51.734;8.950;2023-07-29T14:33:59;23.30;1.00
4727;DHT22;2377;51.734;8.950;2023-07-29T14:36:27;23.10;1.00
4727;DHT22;2377;51.734;8.950;2023-07-29T14:38:54;23.00;1.00
4727;DHT22;2377;51.734;8.950;2023-07-29T14:41:21;23.00;1.00
4727;DHT22;2377;51.734;8.950;2023-07-29T14:43:48;23.10;1.00
4727;DHT22;2377;51.734;8.950;2023-07-29T14:46:18;23.10;1.00
4727;DHT22;2377;51.734;8.950;2023-07-29T14:48:45;23.10;1.00
4727;DHT22;2377;51.734;8.950;2023-07-29T14:51:13;23.00;1.00
4727;DHT22;2377;51.734;8.950;2023-07-29T14:53:41;23.00;1.00
4727;DHT22;2377;51.734;8.950;2023-07-29T14:56:08;22.90;1.00
4727;DHT22;2377;51.734;8.950;2023-07-29T14:58:35;22.80;1.00
4727;DHT22;2377;51.734;8.950;2023-07-29T15:01:02;22.80;1.00
4727;DHT22;2377;51.734;8.950;2023-07-29T15:03:29;22.80;1.00
4727;DHT22;2377;51.734;8.950;2023-07-29T15:05:56;22.80;1.00
4727;DHT22;2377;51.734;8.950;2023-07-29T15:08:25;22.70;1.00
4727;DHT22;2377;51.734;8.950;2023-07-29T15:10:53;22.60;1.00
4727;DHT22;2377;51.734;8.950;2023-07-29T15:13:20;22.50;1.00
4727;DHT22;2377;51.734;8.950;2023-07-29T15:15:47;22.50;1.00
4727;DHT22;2377;51.734;8.950;2023-07-29T15:18:16;22.40;1.00
4727;DHT22;2377;51.734;8.950;2023-07-29T15:20:43;22.40;1.00
4727;DHT22;2377;51.734;8.950;2023-07-29T15:23:10;22.30;1.00
4727;DHT22;2377;51.734;8.950;2023-07-29T15:25:37;22.30;1.00
4727;DHT22;2377;51.734;8.950;2023-07-29T15:28:06;22.30;1.00
4727;DHT22;2377;51.734;8.950;2023-07-29T15:30:35;22.30;1.00
4727;DHT22;2377;51.734;8.950;2023-07-29T15:33:03;22.20;1.00
4727;DHT22;2377;51.734;8.950;2023-07-29T15:35:36;22.20;3.80
4727;DHT22;2377;51.734;8.950;2023-07-29T15:38:04;22.10;1.00
4727;DHT22;2377;51.734;8.950;2023-07-29T15:40:31;22.10;1.00
4727;DHT22;2377;51.734;8.950;2023-07-29T15:42:59;22.10;4.70
4727;DHT22;2377;51.734;8.950;2023-07-29T15:45:27;22.10;5.50
4727;DHT22;2377;51.734;8.950;2023-07-29T15:47:54;22.10;6.90
4727;DHT22;2377;51.734;8.950;2023-07-29T15:50:21;22.10;13.80
4727;DHT22;2377;51.734;8.950;2023-07-29T15:52:48;22.10;11.90
4727;DHT22;2377;51.734;8.950;2023-07-29T15:55:15;22.10;18.00
4727;DHT22;2377;51.734;8.950;2023-07-29T15:57:42;22.00;15.80
4727;DHT22;2377;51.734;8.950;2023-07-29T16:00:10;22.00;1.00
4727;DHT22;2377;51.734;8.950;2023-07-29T16:02:40;21.90;10.40
4727;DHT22;2377;51.734;8.950;2023-07-29T16:05:07;21.80;19.00
4727;DHT22;2377;51.734;8.950;2023-07-29T16:07:34;21.80;1.50
4727;DHT22;2377;51.734;8.950;2023-07-29T16:10:01;21.80;1.50
4727;DHT22;2377;51.734;8.950;2023-07-29T16:12:28;21.60;19.70
4727;DHT22;2377;51.734;8.950;2023-07-29T16:14:55;21.50;48.40
4727;DHT22;2377;51.734;8.950;2023-07-29T16:17:21;21.20;99.90
4727;DHT22;2377;51.734;8.950;2023-07-29T16:20:08;20.90;99.90
4727;DHT22;2377;51.734;8.950;2023-07-29T16:22:37;20.60;99.90